Time;durP1;ratioP1;P1;durP2;ratioP2;P2;SDS_P1;SDS_P2;PMS_P1;PMS_P2;Temp;Humidity;BMP_temperature;BMP_pressure;BME280_temperature;BME280_humidity;BME280_pressure;Samples;Min_cycle;Max_cycle;Signal;HPM_P1;HPM_P2
2021/03/26 00:02:12;;;;;;;27.60;15.05;;;6.50;99.90;;;;;;4934808;29;20052;-86
2021/03/26 00:04:39;;;;;;;27.65;14.57;;;6.60;99.90;;;;;;4936822;29;20492;-86
2021/03/26 00:07:06;;;;;;;25.17;14.07;;;6.60;99.90;;;;;;4921984;29;20465;-85
2021/03/26 00:09:35;;;;;;;27.08;14.75;;;6.70;99.90;;;;;;4938230;29;20139;-88
2021/03/26 00:12:10;;;;;;;23.23;14.48;;;6.60;99.90;;;;;;4938919;29;20059;-87
2021/03/26 00:14:38;;;;;;;22.80;14.30;;;6.60;99.90;;;;;;4938545;29;20114;-86
2021/03/26 00:17:06;;;;;;;23.05;13.65;;;6.60;99.90;;;;;;4921780;29;20055;-85
2021/03/26 00:19:33;;;;;;;28.30;14.55;;;6.60;99.90;;;;;;4938374;29;20055;-87
2021/03/26 00:22:00;;;;;;;31.42;16.92;;;6.50;99.90;;;;;;4920743;29;20115;-87
2021/03/26 00:24:29;;;;;;;28.90;16.00;;;6.50;99.90;;;;;;4906964;29;20055;-85
2021/03/26 00:26:55;;;;;;;24.70;15.43;;;6.40;99.90;;;;;;4922253;29;20051;-85
2021/03/26 00:29:22;;;;;;;23.15;15.55;;;6.30;99.90;;;;;;4939955;29;20477;-84
2021/03/26 00:31:49;;;;;;;28.65;15.48;;;6.20;99.90;;;;;;4906640;29;20615;-86
2021/03/26 00:34:16;;;;;;;31.80;15.70;;;6.10;99.90;;;;;;4927993;29;20127;-87
2021/03/26 00:36:43;;;;;;;32.72;15.38;;;6.00;99.90;;;;;;4952481;29;20058;-86
2021/03/26 00:39:10;;;;;;;25.88;14.98;;;6.10;99.90;;;;;;4939794;29;20055;-87
2021/03/26 00:41:37;;;;;;;31.35;16.20;;;6.10;99.90;;;;;;4957570;28;20048;-86
2021/03/26 00:44:07;;;;;;;25.52;15.27;;;6.10;99.90;;;;;;4940486;29;20051;-86
2021/03/26 00:46:38;;;;;;;25.35;16.27;;;6.10;99.90;;;;;;4948354;29;20082;-86
2021/03/26 00:49:08;;;;;;;24.85;14.85;;;6.10;99.90;;;;;;4925140;29;20061;-87
2021/03/26 00:51:36;;;;;;;26.15;16.13;;;6.20;99.90;;;;;;4938271;29;20043;-85
2021/03/26 00:54:07;;;;;;;27.05;15.95;;;6.20;99.90;;;;;;4907587;29;20051;-86
2021/03/26 00:56:34;;;;;;;22.67;14.98;;;6.20;99.90;;;;;;4939437;29;20339;-86
2021/03/26 00:59:04;;;;;;;25.27;15.65;;;6.20;99.90;;;;;;4923400;29;20043;-87
2021/03/26 01:01:30;;;;;;;29.42;16.60;;;6.20;99.90;;;;;;4922662;29;20059;-87
2021/03/26 01:03:58;;;;;;;27.05;15.27;;;6.20;99.90;;;;;;4923958;29;20414;-88
2021/03/26 01:06:25;;;;;;;25.17;14.85;;;6.20;99.90;;;;;;4924991;29;20157;-87
2021/03/26 01:08:51;;;;;;;23.20;14.85;;;6.20;99.90;;;;;;4925853;29;20123;-87
2021/03/26 01:11:24;;;;;;;23.90;15.40;;;6.20;99.90;;;;;;4923589;29;20103;-86
2021/03/26 01:13:56;;;;;;;25.17;15.00;;;6.20;99.90;;;;;;4937035;29;20083;-87
2021/03/26 01:16:24;;;;;;;25.10;13.68;;;6.20;99.90;;;;;;4937417;29;20385;-88
2021/03/26 01:18:50;;;;;;;27.42;14.10;;;6.20;99.90;;;;;;4920729;29;20059;-86
2021/03/26 01:21:27;;;;;;;25.40;15.05;;;6.20;99.90;;;;;;4919616;29;20048;-87
2021/03/26 01:23:55;;;;;;;27.77;13.88;;;6.20;99.90;;;;;;4902499;29;20055;-85
2021/03/26 01:26:21;;;;;;;23.50;14.43;;;6.10;99.90;;;;;;4921326;29;20119;-87
2021/03/26 01:28:49;;;;;;;21.70;13.55;;;6.00;99.90;;;;;;4921819;29;20087;-88
2021/03/26 01:31:16;;;;;;;30.38;14.18;;;6.00;99.90;;;;;;4939319;29;20056;-86
2021/03/26 01:33:46;;;;;;;26.58;14.82;;;5.90;99.90;;;;;;4904822;29;20466;-87
2021/03/26 01:36:14;;;;;;;22.38;13.93;;;5.70;99.90;;;;;;4936115;29;20389;-87
2021/03/26 01:38:42;;;;;;;24.08;13.90;;;5.60;99.90;;;;;;4918081;29;20048;-86
2021/03/26 01:41:23;;;;;;;28.25;13.95;;;5.50;99.90;;;;;;4936018;29;20055;-86
2021/03/26 01:43:52;;;;;;;26.85;15.00;;;5.40;99.90;;;;;;4919470;29;20067;-87
2021/03/26 01:46:21;;;;;;;28.30;15.27;;;5.30;99.90;;;;;;4937656;29;20056;-87
2021/03/26 01:48:53;;;;;;;23.92;15.23;;;5.20;99.90;;;;;;4923897;29;20462;-86
2021/03/26 01:51:32;;;;;;;28.85;15.15;;;5.10;99.90;;;;;;4941213;29;20078;-86
2021/03/26 01:54:00;;;;;;;30.98;16.00;;;5.00;99.90;;;;;;4940996;29;20170;-88
2021/03/26 01:56:29;;;;;;;25.33;15.57;;;4.90;99.90;;;;;;4940592;29;20146;-86
2021/03/26 01:58:56;;;;;;;26.73;15.55;;;4.90;99.90;;;;;;4941025;29;20150;-86
2021/03/26 02:01:35;;;;;;;29.98;15.88;;;4.70;99.90;;;;;;4923693;29;20048;-86
2021/03/26 02:04:08;;;;;;;28.10;16.25;;;4.60;99.90;;;;;;4931074;29;20111;-85
2021/03/26 02:06:42;;;;;;;25.42;16.23;;;4.60;99.90;;;;;;4914588;29;20051;-86
2021/03/26 02:09:15;;;;;;;30.52;16.80;;;4.50;99.90;;;;;;4923957;29;20055;-88
2021/03/26 02:11:50;;;;;;;28.58;16.45;;;4.50;99.90;;;;;;4940867;29;20122;-86
2021/03/26 02:14:25;;;;;;;29.00;16.92;;;4.50;99.90;;;;;;4940534;29;20456;-86
2021/03/26 02:16:52;;;;;;;32.55;17.05;;;4.60;99.90;;;;;;4937990;29;20453;-86
2021/03/26 02:20:06;;;;;;;35.92;17.02;;;4.70;99.90;;;;;;4924157;29;20052;-87
2021/03/26 02:22:34;;;;;;;24.25;15.32;;;4.80;99.90;;;;;;4883923;29;20097;-87
2021/03/26 02:25:17;;;;;;;26.65;15.50;;;5.00;99.90;;;;;;4940278;29;20056;-87
2021/03/26 02:27:46;;;;;;;26.88;16.98;;;5.10;99.90;;;;;;4936520;29;20035;-86
2021/03/26 02:30:23;;;;;;;32.60;16.45;;;5.20;99.90;;;;;;4933692;29;20047;-86
2021/03/26 02:32:50;;;;;;;31.63;17.92;;;5.20;99.90;;;;;;4931504;29;20048;-86
2021/03/26 02:35:22;;;;;;;30.50;17.33;;;5.20;99.90;;;;;;4924283;29;20115;-86
2021/03/26 02:37:51;;;;;;;35.63;18.45;;;5.20;99.90;;;;;;4939634;29;20043;-86
2021/03/26 02:40:47;;;;;;;29.75;18.85;;;5.20;99.90;;;;;;4928107;29;20051;-88
2021/03/26 02:43:36;;;;;;;28.52;17.45;;;5.30;99.90;;;;;;4936991;29;20051;-87
2021/03/26 02:46:10;;;;;;;32.38;19.17;;;5.20;99.90;;;;;;4912074;29;20083;-87
2021/03/26 02:48:46;;;;;;;33.78;18.83;;;5.20;99.90;;;;;;4919653;29;20137;-87
2021/03/26 02:51:18;;;;;;;32.38;19.85;;;5.20;99.90;;;;;;4938014;29;20052;-86
2021/03/26 02:54:20;;;;;;;32.92;19.33;;;5.10;99.90;;;;;;4937297;29;20051;-88
2021/03/26 02:56:52;;;;;;;32.38;19.65;;;5.10;99.90;;;;;;4907069;29;20059;-87
2021/03/26 02:59:35;;;;;;;32.28;18.60;;;5.00;99.90;;;;;;4919674;29;20131;-86
2021/03/26 03:02:06;;;;;;;27.00;17.83;;;4.90;99.90;;;;;;4919442;29;20056;-87
2021/03/26 03:04:58;;;;;;;29.85;19.17;;;4.90;99.90;;;;;;4937187;29;20070;-85
2021/03/26 03:07:34;;;;;;;30.08;18.50;;;4.70;99.90;;;;;;4935316;29;20112;-88
2021/03/26 03:10:12;;;;;;;33.03;20.17;;;4.60;99.90;;;;;;4917225;29;20500;-87
2021/03/26 03:12:41;;;;;;;32.33;19.65;;;4.50;99.90;;;;;;4921501;29;20082;-85
2021/03/26 03:15:20;;;;;;;32.42;19.25;;;4.40;99.90;;;;;;4912477;29;20080;-86
2021/03/26 03:18:25;;;;;;;31.23;20.08;;;4.40;99.90;;;;;;4919878;29;20090;-86
2021/03/26 03:21:07;;;;;;;30.80;18.65;;;4.30;99.90;;;;;;4903716;29;20063;-86
2021/03/26 03:23:40;;;;;;;36.35;20.48;;;4.20;99.90;;;;;;4940657;29;20055;-86
2021/03/26 03:26:22;;;;;;;34.60;21.20;;;4.20;99.90;;;;;;4929057;29;20111;-87
2021/03/26 03:29:11;;;;;;;34.88;20.08;;;4.10;99.90;;;;;;4949801;29;20047;-86
2021/03/26 03:31:53;;;;;;;37.50;21.70;;;4.20;99.90;;;;;;4918090;29;20060;-86
2021/03/26 03:34:26;;;;;;;33.78;20.40;;;4.20;99.90;;;;;;4933593;29;20076;-86
2021/03/26 03:37:24;;;;;;;41.03;20.77;;;4.30;99.90;;;;;;4941006;29;20070;-87
2021/03/26 03:40:11;;;;;;;32.10;18.83;;;4.50;99.90;;;;;;4942841;29;20114;-86
2021/03/26 03:42:49;;;;;;;29.83;18.50;;;4.70;99.90;;;;;;4916855;29;20391;-87
2021/03/26 03:45:38;;;;;;;33.85;18.58;;;4.90;99.90;;;;;;4939578;29;20095;-86
2021/03/26 03:48:31;;;;;;;31.70;18.88;;;4.90;99.90;;;;;;4922582;29;20082;-88
2021/03/26 03:51:23;;;;;;;31.55;18.75;;;5.00;99.90;;;;;;4938353;29;20056;-87
2021/03/26 03:54:02;;;;;;;35.30;18.85;;;5.10;99.90;;;;;;4939176;29;20047;-85
2021/03/26 03:56:45;;;;;;;30.20;17.80;;;5.10;99.90;;;;;;4925055;29;20075;-87
2021/03/26 03:59:35;;;;;;;30.45;18.25;;;5.10;99.90;;;;;;4935967;29;20047;-87
2021/03/26 04:02:18;;;;;;;29.75;18.35;;;5.10;99.90;;;;;;4937344;29;20063;-87
2021/03/26 04:05:00;;;;;;;;;;;5.20;99.90;;;;;;4908047;29;20083;-86
2021/03/26 04:07:37;;;;;;;29.65;18.08;;;5.20;99.90;;;;;;4920016;29;19923;-86
2021/03/26 04:10:10;;;;;;;32.00;18.63;;;5.20;99.90;;;;;;4934536;29;20065;-87
2021/03/26 04:12:40;;;;;;;32.67;17.33;;;5.30;99.90;;;;;;4939816;29;20119;-87
2021/03/26 04:15:35;;;;;;;30.65;18.65;;;5.30;99.90;;;;;;4927410;29;20080;-86
2021/03/26 04:18:20;;;;;;;32.67;18.67;;;5.30;99.90;;;;;;4915954;29;20056;-87
2021/03/26 04:20:58;;;;;;;31.50;17.67;;;5.30;99.90;;;;;;4938312;29;20178;-87
2021/03/26 04:23:34;;;;;;;34.20;17.67;;;5.30;99.90;;;;;;4922996;29;20107;-87
2021/03/26 04:26:22;;;;;;;30.65;18.27;;;5.30;99.90;;;;;;4910458;29;20047;-86
2021/03/26 04:29:18;;;;;;;26.23;17.75;;;5.30;99.90;;;;;;4937351;29;20468;-86
2021/03/26 04:31:55;;;;;;;30.30;18.23;;;5.20;99.90;;;;;;4935431;29;20059;-86
2021/03/26 04:34:30;;;;;;;30.25;17.33;;;5.20;99.90;;;;;;4922068;29;20048;-87
2021/03/26 04:37:24;;;;;;;30.15;18.40;;;5.30;99.90;;;;;;4923291;29;20075;-87
2021/03/26 04:40:09;;;;;;;34.38;17.10;;;5.30;99.90;;;;;;4921767;29;20043;-87
2021/03/26 04:42:48;;;;;;;29.67;16.77;;;5.30;99.90;;;;;;4938528;29;20052;-86
2021/03/26 04:45:42;;;;;;;33.17;17.40;;;5.30;99.90;;;;;;4922630;29;20075;-86
2021/03/26 04:48:32;;;;;;;28.45;17.20;;;5.40;99.90;;;;;;4939036;29;20048;-87
2021/03/26 04:51:17;;;;;;;28.00;17.05;;;5.50;99.90;;;;;;4932365;29;20457;-86
2021/03/26 04:53:58;;;;;;;22.13;16.00;;;5.50;99.90;;;;;;4920722;29;20115;-87
2021/03/26 04:56:32;;;;;;;29.08;17.02;;;5.50;99.90;;;;;;4936818;29;20508;-86
2021/03/26 04:59:02;;;;;;;28.70;17.80;;;5.60;99.90;;;;;;4907626;29;20055;-88
2021/03/26 05:01:31;;;;;;;;;;;5.60;99.90;;;;;;4923051;29;20131;-86
2021/03/26 05:04:16;;;;;;;30.15;16.67;;;5.60;99.90;;;;;;4949249;29;19931;-89
2021/03/26 05:06:49;;;;;;;24.58;16.20;;;5.50;99.90;;;;;;4935538;29;20062;-86
2021/03/26 05:09:38;;;;;;;;;;;5.40;99.90;;;;;;4934576;29;20052;-87
2021/03/26 05:12:19;;;;;;;29.05;17.15;;;5.30;99.90;;;;;;4948512;29;19933;-87
2021/03/26 05:15:04;;;;;;;30.58;18.80;;;5.30;99.90;;;;;;4924943;29;20131;-86
2021/03/26 05:17:43;;;;;;;31.50;18.25;;;5.30;99.90;;;;;;4930808;29;20044;-87
2021/03/26 05:20:31;;;;;;;31.95;17.67;;;5.20;99.90;;;;;;4934495;29;20067;-86
2021/03/26 05:23:07;;;;;;;29.55;18.38;;;5.10;99.90;;;;;;4923554;29;20048;-85
2021/03/26 05:25:38;;;;;;;31.33;18.60;;;5.00;99.90;;;;;;4942079;29;20106;-86
2021/03/26 05:28:10;;;;;;;26.45;18.38;;;4.80;99.90;;;;;;4942553;29;20056;-87
2021/03/26 05:30:44;;;;;;;35.67;20.55;;;4.70;99.90;;;;;;4943136;29;20052;-88
2021/03/26 05:33:26;;;;;;;35.80;19.65;;;4.60;99.90;;;;;;4937855;29;20118;-87
2021/03/26 05:36:02;;;;;;;30.98;20.85;;;4.50;99.90;;;;;;4939419;29;20040;-83
2021/03/26 05:38:50;;;;;;;34.72;21.60;;;4.40;99.90;;;;;;4928018;29;20059;-82
2021/03/26 05:41:35;;;;;;;32.30;20.77;;;4.40;99.90;;;;;;4938304;29;20071;-83
2021/03/26 05:44:21;;;;;;;36.88;21.02;;;4.40;99.90;;;;;;4937813;29;20222;-82
2021/03/26 05:47:29;;;;;;;33.53;19.58;;;4.40;99.90;;;;;;4921377;29;20055;-82
2021/03/26 05:50:21;;;;;;;34.30;20.33;;;4.40;99.90;;;;;;4918815;29;20056;-84
2021/03/26 05:53:07;;;;;;;38.45;20.88;;;4.30;99.90;;;;;;4924976;29;20119;-82
2021/03/26 05:55:48;;;;;;;36.22;20.73;;;4.30;99.90;;;;;;4933908;29;20114;-81
2021/03/26 05:58:17;;;;;;;37.63;21.45;;;4.30;99.90;;;;;;4939675;29;20142;-85
2021/03/26 06:01:08;;;;;;;32.78;20.13;;;4.30;99.90;;;;;;4924907;29;20457;-85
2021/03/26 06:04:08;;;;;;;31.95;19.25;;;4.40;99.90;;;;;;4923900;29;20064;-84
2021/03/26 06:06:47;;;;;;;32.47;19.27;;;4.30;99.90;;;;;;4939943;29;20062;-84
2021/03/26 06:09:51;;;;;;;30.17;19.05;;;4.30;99.90;;;;;;4936834;29;20071;-85
2021/03/26 06:12:46;;;;;;;33.20;20.23;;;4.20;99.90;;;;;;4939386;29;20417;-85
2021/03/26 06:15:54;;;;;;;32.50;18.77;;;4.30;99.90;;;;;;4920989;29;20131;-84
2021/03/26 06:18:40;;;;;;;32.90;19.65;;;4.50;99.90;;;;;;4920058;29;20067;-84
2021/03/26 06:21:16;;;;;;;30.20;19.35;;;4.60;99.90;;;;;;4923944;29;20051;-86
2021/03/26 06:23:48;;;;;;;31.38;18.65;;;4.90;99.90;;;;;;4940364;29;20401;-86
2021/03/26 06:26:57;;;;;;;32.50;18.42;;;5.20;99.90;;;;;;4911362;29;20118;-85
2021/03/26 06:30:03;;;;;;;25.35;17.52;;;5.60;99.90;;;;;;4941321;29;20051;-86
2021/03/26 06:32:58;;;;;;;28.63;16.88;;;6.10;99.90;;;;;;4922097;29;20075;-87
2021/03/26 06:36:05;;;;;;;26.75;15.88;;;6.80;99.90;;;;;;4930895;29;20059;-87
2021/03/26 06:39:03;;;;;;;29.85;15.32;;;7.50;99.90;;;;;;4948579;29;20048;-86
2021/03/26 06:41:45;;;;;;;24.98;14.15;;;8.10;99.90;;;;;;4938350;29;20076;-87
2021/03/26 06:44:52;;;;;;;26.42;15.90;;;8.30;99.90;;;;;;4922798;29;20115;-88
2021/03/26 06:47:56;;;;;;;22.40;14.18;;;8.20;99.90;;;;;;4935522;29;20458;-87
2021/03/26 06:50:53;;;;;;;21.65;14.43;;;8.00;99.90;;;;;;4942020;29;20058;-89
2021/03/26 06:54:05;;;;;;;26.60;14.98;;;7.80;99.90;;;;;;4945179;29;20044;-90
2021/03/26 06:57:04;;;;;;;23.98;15.23;;;7.70;99.90;;;;;;4934045;29;20043;-89
2021/03/26 07:00:32;;;;;;;25.27;15.80;;;7.60;99.90;;;;;;4928567;29;20186;-91
2021/03/26 07:03:39;;;;;;;22.52;14.60;;;7.70;99.90;;;;;;4951692;28;20819;-89
2021/03/26 07:06:51;;;;;;;28.98;16.38;;;8.00;99.90;;;;;;4957616;28;20047;-91
2021/03/26 07:10:44;;;;;;;;;;;;;;;;;;;;;
2021/03/26 07:17:35;;;;;;;21.05;14.73;;;9.30;99.90;;;;;;4812704;29;20057;-88
2021/03/26 07:20:28;;;;;;;22.65;14.77;;;9.30;99.90;;;;;;4887721;29;20233;-89
2021/03/26 07:23:33;;;;;;;24.83;14.23;;;9.40;99.90;;;;;;4878958;29;20045;-90
2021/03/26 07:26:31;;;;;;;27.58;14.68;;;9.30;99.90;;;;;;4882846;29;20518;-89
2021/03/26 07:29:29;;;;;;;25.48;15.63;;;9.20;99.90;;;;;;4880718;29;20104;-89
2021/03/26 07:32:41;;;;;;;;;;;;;;;;;;;;;
2021/03/26 07:35:42;;;;;;;24.10;14.13;;;9.20;99.90;;;;;;4863387;29;20053;-85
2021/03/26 07:38:27;;;;;;;29.33;14.95;;;9.70;99.90;;;;;;4862176;29;20060;-87
2021/03/26 07:41:32;;;;;;;21.67;13.77;;;10.10;99.90;;;;;;4861229;29;20118;-86
2021/03/26 07:44:21;;;;;;;23.35;14.07;;;10.50;99.90;;;;;;4860462;29;20447;-88
2021/03/26 07:47:10;;;;;;;20.58;14.30;;;10.90;99.90;;;;;;4840899;29;20053;-87
2021/03/26 07:49:55;;;;;;;26.25;13.85;;;11.40;99.90;;;;;;4854955;29;20356;-88
2021/03/26 07:52:41;;;;;;;23.30;13.48;;;12.10;98.60;;;;;;4877987;29;20417;-87
2021/03/26 07:55:20;;;;;;;21.40;13.93;;;12.60;93.30;;;;;;4934412;29;20110;-86
2021/03/26 07:58:17;;;;;;;21.90;12.65;;;12.70;93.40;;;;;;4920189;29;20059;-87
2021/03/26 08:01:08;;;;;;;21.42;13.27;;;12.70;91.80;;;;;;4937635;29;20055;-87
2021/03/26 08:04:09;;;;;;;20.15;12.35;;;12.80;92.50;;;;;;4937461;29;20568;-89
2021/03/26 08:07:04;;;;;;;18.80;11.90;;;13.30;91.00;;;;;;4936725;29;20048;-89
2021/03/26 08:10:08;;;;;;;22.70;12.05;;;14.10;82.00;;;;;;4935633;29;20062;-91
2021/03/26 08:13:13;;;;;;;19.33;12.15;;;14.70;76.60;;;;;;4937138;29;20039;-90
2021/03/26 08:16:06;;;;;;;17.52;11.73;;;15.00;73.50;;;;;;4920677;29;20473;-88
2021/03/26 08:19:14;;;;;;;19.30;11.25;;;15.30;70.80;;;;;;4922442;29;20370;-90
2021/03/26 08:22:22;;;;;;;22.45;11.27;;;15.70;67.90;;;;;;4907968;29;20098;-88
2021/03/26 08:25:13;;;;;;;18.88;11.68;;;16.30;65.50;;;;;;4907489;29;20448;-89
2021/03/26 08:27:49;;;;;;;16.67;11.13;;;16.40;67.00;;;;;;4938633;29;20048;-89
2021/03/26 08:30:46;;;;;;;19.20;10.75;;;16.90;65.50;;;;;;4938030;29;20481;-89
2021/03/26 08:33:47;;;;;;;16.38;10.07;;;17.70;62.00;;;;;;4921055;29;20044;-89
2021/03/26 08:36:32;;;;;;;15.88;10.60;;;18.20;57.10;;;;;;4933929;29;20044;-88
2021/03/26 08:39:22;;;;;;;14.00;10.02;;;18.60;55.70;;;;;;4933042;29;20052;-89
2021/03/26 08:42:35;;;;;;;14.65;9.80;;;18.50;56.60;;;;;;4937630;29;20046;-88
2021/03/26 08:45:28;;;;;;;15.00;9.90;;;18.60;56.30;;;;;;4918443;29;20047;-91
2021/03/26 08:49:05;;;;;;;;;;;;;;;;;;;;;
2021/03/26 08:52:18;;;;;;;19.80;9.77;;;19.60;53.30;;;;;;4905898;29;20052;-89
2021/03/26 08:55:15;;;;;;;16.35;10.75;;;19.70;51.20;;;;;;4946740;29;20092;-89
2021/03/26 08:58:08;;;;;;;14.82;10.40;;;20.20;49.80;;;;;;4949878;29;20104;-89
2021/03/26 09:00:38;;;;;;;15.98;9.70;;;20.00;51.60;;;;;;4944970;29;20065;-89
2021/03/26 09:03:17;;;;;;;16.00;9.77;;;20.30;50.80;;;;;;4942210;29;20418;-90
2021/03/26 09:06:07;;;;;;;14.38;10.32;;;20.30;50.80;;;;;;4933195;29;20047;-89
2021/03/26 09:08:53;;;;;;;17.77;10.05;;;20.70;48.00;;;;;;4921828;29;20060;-91
2021/03/26 09:14:36;;;;;;;16.77;10.02;;;21.00;48.60;;;;;;4978093;23;20128;-91
2021/03/26 09:17:28;;;;;;;14.52;10.10;;;19.80;49.40;;;;;;4938645;29;20384;-90
2021/03/26 09:20:27;;;;;;;17.20;10.88;;;20.00;49.20;;;;;;4941936;29;20047;-90
2021/03/26 09:23:35;;;;;;;15.52;10.40;;;19.80;48.30;;;;;;4958803;29;20132;-88
2021/03/26 09:26:37;;;;;;;15.18;10.45;;;19.30;49.70;;;;;;4960771;29;20373;-88
2021/03/26 09:29:09;;;;;;;;;;;19.30;49.80;;;;;;4962900;29;20043;-88
2021/03/26 09:32:02;;;;;;;;;;;;;;;;;;;;;
2021/03/26 09:35:16;;;;;;;16.88;9.75;;;20.70;47.00;;;;;;4958312;29;20083;-89
2021/03/26 09:38:10;;;;;;;16.27;9.98;;;20.50;47.10;;;;;;4948121;29;20188;-86
2021/03/26 09:40:50;;;;;;;14.65;10.35;;;20.60;45.70;;;;;;4966988;28;20055;-89
2021/03/26 09:43:26;;;;;;;16.95;9.98;;;20.20;47.00;;;;;;4951274;29;20043;-88
2021/03/26 09:46:15;;;;;;;17.25;10.85;;;20.40;48.30;;;;;;4950668;28;20051;-89
2021/03/26 09:48:50;;;;;;;16.73;9.20;;;20.80;47.50;;;;;;4948669;29;20191;-90
2021/03/26 09:52:12;;;;;;;15.52;10.13;;;20.80;45.70;;;;;;4940355;29;20090;-90
2021/03/26 09:54:54;;;;;;;13.98;8.93;;;20.90;45.90;;;;;;4956620;29;20135;-90
2021/03/26 09:58:10;;;;;;;15.02;9.13;;;21.30;44.70;;;;;;4860879;29;20082;-90
2021/03/26 10:00:44;;;;;;;12.05;8.80;;;21.20;43.30;;;;;;4861966;29;20064;-89
2021/03/26 10:03:43;;;;;;;15.70;8.27;;;20.60;44.80;;;;;;4852883;29;20056;-89
2021/03/26 10:06:13;;;;;;;15.38;8.95;;;20.70;44.80;;;;;;4856115;29;20065;-89
2021/03/26 10:12:13;;;;;;;14.80;8.95;;;20.20;46.50;;;;;;4867321;29;20134;-90
2021/03/26 10:15:20;;;;;;;15.32;9.80;;;20.50;46.60;;;;;;4885403;29;20145;-90
2021/03/26 10:18:19;;;;;;;12.32;8.45;;;20.80;45.40;;;;;;4882098;29;20076;-89
2021/03/26 10:21:14;;;;;;;17.42;9.25;;;20.50;44.80;;;;;;4945223;29;20059;-89
2021/03/26 10:23:52;;;;;;;14.15;8.80;;;20.50;45.70;;;;;;4942623;29;20469;-90
2021/03/26 10:27:01;;;;;;;15.13;8.68;;;20.80;45.30;;;;;;4961540;29;20078;-90
2021/03/26 10:29:36;;;;;;;11.65;8.05;;;20.50;45.60;;;;;;4873465;29;20136;-89
2021/03/26 10:32:22;;;;;;;13.77;8.60;;;20.50;45.60;;;;;;4949377;29;20055;-90
2021/03/26 10:34:59;;;;;;;15.07;8.75;;;20.30;45.40;;;;;;4954642;29;20079;-90
2021/03/26 10:38:08;;;;;;;15.13;7.97;;;20.50;45.30;;;;;;4942284;29;20114;-87
2021/03/26 10:40:41;;;;;;;14.70;8.57;;;20.70;45.60;;;;;;4951049;29;20055;-87
2021/03/26 10:43:34;;;;;;;14.57;9.07;;;20.60;45.00;;;;;;4967197;29;20051;-90
2021/03/26 10:46:24;;;;;;;12.57;8.57;;;20.40;44.50;;;;;;4945188;29;20110;-91
2021/03/26 10:49:39;;;;;;;12.57;7.72;;;20.10;45.30;;;;;;4925513;29;20066;-88
2021/03/26 10:52:18;;;;;;;14.10;7.93;;;20.00;45.30;;;;;;4938178;29;20055;-87
2021/03/26 10:55:20;;;;;;;15.90;7.63;;;19.60;46.60;;;;;;4942693;29;20146;-88
2021/03/26 10:58:04;;;;;;;11.95;7.22;;;20.30;45.20;;;;;;4954287;29;20078;-87
2021/03/26 11:00:36;;;;;;;12.70;7.85;;;20.70;44.20;;;;;;4955223;29;20043;-88
2021/03/26 11:03:19;;;;;;;7.47;5.75;;;20.70;43.20;;;;;;4955898;29;20452;-88
2021/03/26 11:06:03;;;;;;;10.77;6.07;;;21.00;43.30;;;;;;4967950;29;20509;-89
2021/03/26 11:08:50;;;;;;;11.23;7.35;;;21.10;42.70;;;;;;4943870;29;20055;-90
2021/03/26 11:11:28;;;;;;;12.13;8.10;;;20.70;42.70;;;;;;4951409;29;20047;-88
2021/03/26 11:14:16;;;;;;;14.85;8.70;;;20.70;44.60;;;;;;4964356;28;20059;-85
2021/03/26 11:17:04;;;;;;;15.43;8.05;;;21.50;43.50;;;;;;4947065;29;20055;-90
2021/03/26 11:19:41;;;;;;;12.27;8.10;;;21.70;43.20;;;;;;4961443;28;20047;-88
2021/03/26 11:22:23;;;;;;;12.38;7.95;;;22.30;42.40;;;;;;4959776;29;20089;-89
2021/03/26 11:25:30;;;;;;;12.48;7.75;;;23.00;41.00;;;;;;4943551;29;20069;-92
2021/03/26 11:28:14;;;;;;;14.18;8.30;;;23.60;40.20;;;;;;4923191;29;20051;-90
2021/03/26 11:30:48;;;;;;;12.93;8.35;;;22.30;40.70;;;;;;4943335;29;20118;-91
2021/03/26 11:33:42;;;;;;;10.95;8.60;;;20.90;43.20;;;;;;4943331;29;20051;-88
2021/03/26 11:36:35;;;;;;;15.43;8.75;;;20.30;44.80;;;;;;4959013;29;20110;-88
2021/03/26 11:39:18;;;;;;;11.50;8.05;;;19.90;45.50;;;;;;4925340;29;20069;-88
2021/03/26 11:42:08;;;;;;;12.85;8.48;;;20.50;44.80;;;;;;4960507;29;20059;-89
2021/03/26 11:45:21;;;;;;;13.93;8.87;;;21.20;43.70;;;;;;4959086;29;20107;-90
2021/03/26 11:47:58;;;;;;;9.50;6.28;;;22.70;41.70;;;;;;4946333;29;20089;-89
2021/03/26 11:50:53;;;;;;;10.85;5.85;;;23.00;39.50;;;;;;4945918;29;20129;-87
2021/03/26 11:53:41;;;;;;;11.35;5.68;;;21.30;40.90;;;;;;4943443;29;20106;-86
2021/03/26 11:56:24;;;;;;;10.98;5.90;;;20.80;42.70;;;;;;4962148;29;20061;-86
2021/03/26 11:59:24;;;;;;;8.73;5.72;;;20.90;41.60;;;;;;4948781;29;20035;-86
2021/03/26 12:01:54;;;;;;;9.45;5.40;;;20.20;42.90;;;;;;4960918;29;20083;-86
2021/03/26 12:04:29;;;;;;;11.02;4.97;;;21.00;42.30;;;;;;4961384;29;20118;-87
2021/03/26 12:07:35;;;;;;;11.85;4.45;;;22.00;41.60;;;;;;4958464;29;20110;-87
2021/03/26 12:10:13;;;;;;;6.47;4.72;;;22.90;38.50;;;;;;4932113;29;20111;-90
2021/03/26 12:12:51;;;;;;;8.90;5.13;;;22.10;38.00;;;;;;4941604;29;20074;-88
2021/03/26 12:15:35;;;;;;;8.98;6.30;;;21.50;38.80;;;;;;4956318;29;20051;-88
2021/03/26 12:18:02;;;;;;;9.95;6.03;;;21.50;40.40;;;;;;4959859;29;20063;-89
2021/03/26 12:20:40;;;;;;;11.75;6.57;;;21.80;39.00;;;;;;4942907;29;20115;-87
2021/03/26 12:23:29;;;;;;;9.20;5.28;;;22.50;38.10;;;;;;4944802;29;20059;-88
2021/03/26 12:26:18;;;;;;;7.75;4.95;;;22.40;37.90;;;;;;4961400;29;20123;-88
2021/03/26 12:28:59;;;;;;;10.98;5.63;;;23.30;37.60;;;;;;4957545;29;20114;-88
2021/03/26 12:31:59;;;;;;;7.68;5.20;;;24.50;35.70;;;;;;4950270;28;20059;-87
2021/03/26 12:34:52;;;;;;;9.68;5.68;;;25.70;34.20;;;;;;4932045;29;20055;-86
2021/03/26 12:37:33;;;;;;;9.23;4.95;;;25.40;33.20;;;;;;4937326;29;20462;-87
2021/03/26 12:40:30;;;;;;;10.93;5.32;;;23.80;33.50;;;;;;4956322;29;20043;-87
2021/03/26 12:43:23;;;;;;;11.90;5.30;;;23.30;35.20;;;;;;4957016;29;20449;-88
2021/03/26 12:46:11;;;;;;;9.00;5.95;;;23.10;36.40;;;;;;4958226;29;20051;-86
2021/03/26 12:48:55;;;;;;;10.50;5.57;;;23.60;35.30;;;;;;4959279;29;20053;-87
2021/03/26 12:51:28;;;;;;;12.00;5.95;;;23.30;37.00;;;;;;4942157;29;20055;-86
2021/03/26 12:54:35;;;;;;;10.13;5.68;;;23.40;36.60;;;;;;4948372;29;20043;-89
2021/03/26 12:57:10;;;;;;;9.93;5.65;;;24.30;35.70;;;;;;4955798;28;20054;-87
2021/03/26 12:59:40;;;;;;;7.15;5.60;;;24.50;34.30;;;;;;4970198;29;20078;-88
2021/03/26 13:02:37;;;;;;;10.27;5.72;;;23.60;36.00;;;;;;4963110;29;20051;-84
2021/03/26 13:05:20;;;;;;;12.07;6.63;;;22.80;37.00;;;;;;4949638;29;20090;-89
2021/03/26 13:07:54;;;;;;;10.55;5.82;;;22.30;38.00;;;;;;4937279;29;20071;-87
2021/03/26 13:10:58;;;;;;;9.73;6.38;;;22.40;38.90;;;;;;4958457;28;20055;-88
2021/03/26 13:13:53;;;;;;;8.32;5.10;;;22.50;38.90;;;;;;4969226;28;20110;-87
2021/03/26 13:16:52;;;;;;;8.60;4.95;;;23.80;37.90;;;;;;4943136;29;20051;-88
2021/03/26 13:19:21;;;;;;;8.88;5.88;;;23.00;35.70;;;;;;4968897;28;20086;-89
2021/03/26 13:22:04;;;;;;;7.28;4.90;;;22.00;37.80;;;;;;4950255;29;20051;-87
2021/03/26 13:24:33;;;;;;;8.13;4.78;;;21.90;38.60;;;;;;4961381;29;20055;-87
2021/03/26 13:27:18;;;;;;;9.10;5.07;;;22.80;37.30;;;;;;4942535;29;20039;-88
2021/03/26 13:30:11;;;;;;;8.48;4.35;;;22.70;36.00;;;;;;4940518;29;20051;-88
2021/03/26 13:32:57;;;;;;;9.98;4.47;;;21.90;38.20;;;;;;4950115;29;20445;-90
2021/03/26 13:35:40;;;;;;;6.10;3.90;;;20.70;39.40;;;;;;4943217;29;20484;-91
2021/03/26 13:38:43;;;;;;;6.18;3.88;;;19.80;41.40;;;;;;4958148;29;20110;-91
2021/03/26 13:41:41;;;;;;;6.95;3.47;;;20.00;42.10;;;;;;4872183;29;20473;-88
2021/03/26 13:44:31;;;;;;;7.63;3.60;;;20.00;41.70;;;;;;4935431;29;20073;-89
2021/03/26 13:47:32;;;;;;;;;;;;;;;;;;;;;
2021/03/26 13:50:42;;;;;;;4.22;2.70;;;20.20;41.10;;;;;;4949854;29;20079;-90
2021/03/26 13:53:19;;;;;;;6.55;2.70;;;19.50;41.50;;;;;;4962283;29;20074;-89
2021/03/26 13:56:09;;;;;;;4.25;2.75;;;18.80;41.40;;;;;;4942642;29;20382;-91
2021/03/26 13:59:15;;;;;;;4.93;2.83;;;18.60;42.10;;;;;;4944018;29;20063;-93
2021/03/26 14:01:54;;;;;;;4.20;2.25;;;18.60;42.90;;;;;;4941220;29;20043;-86
2021/03/26 14:04:42;;;;;;;6.43;3.03;;;19.50;42.80;;;;;;4957073;28;20072;-86
2021/03/26 14:07:18;;;;;;;8.00;3.22;;;19.70;42.50;;;;;;4940439;29;20075;-87
2021/03/26 14:10:09;;;;;;;5.55;2.30;;;20.30;40.80;;;;;;4945368;29;20146;-87
2021/03/26 14:12:40;;;;;;;6.03;2.78;;;20.70;38.10;;;;;;4942465;29;20146;-86
2021/03/26 14:15:28;;;;;;;6.20;2.45;;;20.10;38.80;;;;;;4941979;29;20066;-87
2021/03/26 14:18:13;;;;;;;7.75;2.97;;;20.30;39.60;;;;;;4934771;29;20043;-88
2021/03/26 14:20:51;;;;;;;5.70;2.42;;;20.70;38.60;;;;;;4949702;28;20418;-86
2021/03/26 14:23:35;;;;;;;5.55;3.20;;;21.90;37.90;;;;;;4904026;29;20053;-86
2021/03/26 14:26:41;;;;;;;7.23;2.73;;;21.50;37.00;;;;;;4884394;29;20493;-87